Greens Fork, Indiana
Current Conditions -  °F | °C
As of 6:53 AM on Saturday 01 Nov 2014 (Local Time) from KMIE Reporting Station
Overcast Overcast  
Wind Chill: 23°   Ceiling: 2800
Heat Index: 33°   Visibility: 10mi
Dew Point: 25°   Wind: 16mph
Humidity: 72%   Direction: 10°N
Pressure: 30.23"   Gusts: NA
Location:  39.89°N, 85.04°W
Report Text: KMIE 011053Z 01014KT 10SM OVC028 01/M04 A3023 RMK AO2 SLP241 T00061039
Loading
Personal Weather Stations






























Interactive Weather Map
Tropical Storm Tracking
New forecast layout! Learn more

10-Day Weather Forecast

Advertisements
Track Severe Weather on mobile